Time;durP1;ratioP1;P1;durP2;ratioP2;P2;SDS_P1;SDS_P2;PMS_P1;PMS_P2;Temp;Humidity;BMP_temperature;BMP_pressure;BME280_temperature;BME280_humidity;BME280_pressure;Samples;Min_cycle;Max_cycle;Signal;HPM_P1;HPM_P2
2022/05/29 00:00:15;;;;;;;3.40;2.33;;;14.40;90.80;;;;;;6049317;23;20979;-77
2022/05/29 00:02:42;;;;;;;2.17;1.97;;;14.40;90.90;;;;;;6062409;23;20461;-77
2022/05/29 00:05:11;;;;;;;2.20;2.00;;;14.40;91.00;;;;;;6050457;23;20475;-76
2022/05/29 00:07:40;;;;;;;2.70;2.03;;;14.30;91.20;;;;;;6059830;23;20561;-77
2022/05/29 00:10:10;;;;;;;2.87;2.10;;;14.30;91.20;;;;;;6058865;23;20443;-77
2022/05/29 00:12:39;;;;;;;2.97;2.55;;;14.30;91.10;;;;;;6059939;23;20494;-77
2022/05/29 00:15:08;;;;;;;3.40;2.00;;;14.30;91.20;;;;;;6050514;23;20194;-77
2022/05/29 00:17:36;;;;;;;3.67;2.30;;;14.20;91.10;;;;;;6053510;23;20451;-76
2022/05/29 00:20:05;;;;;;;2.63;1.83;;;14.30;91.30;;;;;;6052130;23;20958;-76
2022/05/29 00:22:33;;;;;;;3.57;2.00;;;14.20;91.40;;;;;;6042440;23;20464;-77
2022/05/29 00:25:02;;;;;;;2.50;2.10;;;14.20;91.30;;;;;;6050845;23;20481;-76
2022/05/29 00:27:28;;;;;;;5.00;2.17;;;14.20;91.40;;;;;;6046728;23;20454;-77
2022/05/29 00:29:55;;;;;;;2.00;1.80;;;14.30;91.60;;;;;;6052826;23;20446;-77
2022/05/29 00:32:22;;;;;;;2.20;2.00;;;14.30;91.20;;;;;;6052147;23;20473;-76
2022/05/29 00:34:51;;;;;;;1.90;1.80;;;14.30;91.00;;;;;;6048926;23;20444;-77
2022/05/29 00:37:18;;;;;;;2.40;1.87;;;14.30;90.80;;;;;;6055747;23;20530;-77
2022/05/29 00:39:46;;;;;;;2.23;1.80;;;14.30;90.70;;;;;;6046523;23;20542;-77
2022/05/29 00:42:16;;;;;;;2.27;1.80;;;14.20;90.80;;;;;;6057846;23;20469;-77
2022/05/29 00:44:43;;;;;;;5.10;2.17;;;14.20;90.60;;;;;;6048446;23;20433;-77
2022/05/29 00:47:14;;;;;;;3.00;1.90;;;14.20;90.60;;;;;;6054903;23;20443;-77
2022/05/29 00:49:43;;;;;;;2.80;1.77;;;14.20;90.50;;;;;;6059250;23;20522;-77
2022/05/29 00:52:16;;;;;;;4.23;1.83;;;14.20;90.30;;;;;;6059463;23;20546;-77
2022/05/29 00:54:49;;;;;;;2.00;1.80;;;14.10;90.60;;;;;;6051549;23;20443;-77
2022/05/29 00:57:19;;;;;;;4.53;2.20;;;14.10;90.60;;;;;;6052384;23;20456;-76
2022/05/29 00:59:48;;;;;;;2.30;1.93;;;14.00;90.60;;;;;;6058010;23;20220;-77
2022/05/29 01:02:15;;;;;;;2.27;1.90;;;14.00;90.80;;;;;;6053140;23;20550;-77
2022/05/29 01:04:43;;;;;;;1.90;1.70;;;14.00;91.30;;;;;;6040499;23;20442;-77
2022/05/29 01:07:15;;;;;;;2.87;1.90;;;13.90;91.20;;;;;;6060586;23;20500;-77
2022/05/29 01:09:45;;;;;;;2.60;1.80;;;14.00;91.10;;;;;;6061210;23;20443;-77
2022/05/29 01:12:25;;;;;;;3.33;2.40;;;14.00;91.30;;;;;;6050691;23;20459;-77
2022/05/29 01:15:00;;;;;;;2.03;1.67;;;14.00;91.50;;;;;;6044494;23;20471;-77
2022/05/29 01:17:34;;;;;;;1.85;1.75;;;14.10;91.50;;;;;;6057513;23;20439;-77
2022/05/29 01:20:39;;;;;;;2.27;1.97;;;14.00;91.50;;;;;;6054672;23;20291;-77
2022/05/29 01:23:30;;;;;;;3.50;2.10;;;14.00;91.40;;;;;;6052507;23;20467;-77
2022/05/29 01:26:46;;;;;;;2.25;1.80;;;14.00;91.50;;;;;;6053255;23;20542;-78
2022/05/29 01:29:18;;;;;;;2.30;1.80;;;14.00;91.50;;;;;;5961386;23;20615;-77
2022/05/29 01:31:50;;;;;;;2.10;1.90;;;14.10;91.60;;;;;;6032983;23;20451;-77
2022/05/29 01:34:29;;;;;;;2.27;1.90;;;14.00;91.60;;;;;;6053990;23;20960;-77
2022/05/29 01:37:08;;;;;;;2.40;1.65;;;14.10;91.30;;;;;;6043503;23;21033;-77
2022/05/29 01:39:38;;;;;;;2.58;1.58;;;14.00;90.60;;;;;;6053895;23;20199;-77
2022/05/29 01:42:11;;;;;;;3.92;1.85;;;14.00;90.50;;;;;;6045474;23;20205;-76
2022/05/29 01:44:43;;;;;;;1.80;1.70;;;14.00;90.40;;;;;;6053304;23;20524;-77
2022/05/29 01:47:17;;;;;;;2.90;1.70;;;13.90;90.40;;;;;;6052848;23;20922;-77
2022/05/29 01:49:49;;;;;;;2.37;2.00;;;13.80;90.40;;;;;;6047507;23;20436;-77
2022/05/29 01:52:20;;;;;;;3.40;1.40;;;13.80;90.50;;;;;;6053930;23;20554;-77
2022/05/29 01:54:53;;;;;;;1.67;1.55;;;13.80;90.60;;;;;;6051322;23;20442;-77
2022/05/29 01:57:25;;;;;;;4.10;1.75;;;13.80;90.70;;;;;;6057746;23;20184;-77
2022/05/29 01:59:59;;;;;;;2.33;1.52;;;13.80;90.70;;;;;;6049418;23;20185;-77
2022/05/29 02:02:38;;;;;;;2.10;1.50;;;13.80;90.90;;;;;;6060188;23;20219;-76
2022/05/29 02:05:09;;;;;;;2.28;1.60;;;13.70;90.90;;;;;;6056048;23;20185;-77
2022/05/29 02:07:50;;;;;;;3.45;1.70;;;13.70;91.10;;;;;;6051347;23;20275;-77
2022/05/29 02:10:27;;;;;;;3.45;1.65;;;13.70;91.20;;;;;;6062965;23;20196;-77
2022/05/29 02:13:01;;;;;;;2.38;1.60;;;13.70;91.30;;;;;;6063089;23;20638;-77
2022/05/29 02:15:36;;;;;;;2.00;1.40;;;13.60;91.40;;;;;;6038927;23;20219;-76
2022/05/29 02:18:05;;;;;;;2.05;1.70;;;13.60;91.40;;;;;;6057924;23;20249;-77
2022/05/29 02:20:37;;;;;;;2.20;1.67;;;13.50;91.40;;;;;;6067569;23;20280;-76
2022/05/29 02:23:08;;;;;;;2.25;1.60;;;13.50;91.40;;;;;;6044704;23;20213;-76
2022/05/29 02:25:37;;;;;;;3.85;1.80;;;13.50;91.50;;;;;;6050679;23;20205;-77
2022/05/29 02:28:10;;;;;;;2.95;1.90;;;13.30;91.70;;;;;;6050682;23;20193;-76
2022/05/29 02:30:46;;;;;;;4.05;1.70;;;13.20;92.10;;;;;;6065314;23;20560;-77
2022/05/29 02:33:19;;;;;;;2.00;1.80;;;13.10;92.30;;;;;;6042841;23;20211;-76
2022/05/29 02:35:55;;;;;;;4.13;1.88;;;13.00;92.50;;;;;;6049696;23;20602;-77
2022/05/29 02:38:32;;;;;;;3.47;1.90;;;13.00;92.80;;;;;;6054793;23;20208;-76
2022/05/29 02:41:03;;;;;;;3.92;1.65;;;13.00;93.20;;;;;;6044449;23;20219;-77
2022/05/29 02:43:40;;;;;;;3.35;1.83;;;12.90;93.30;;;;;;6043369;23;20255;-77
2022/05/29 02:46:16;;;;;;;2.65;1.60;;;13.00;93.50;;;;;;6047601;23;20216;-77
2022/05/29 02:48:50;;;;;;;4.28;1.83;;;13.00;93.60;;;;;;6048933;23;20262;-77
2022/05/29 02:51:24;;;;;;;3.05;2.15;;;12.90;94.20;;;;;;6045811;23;20189;-77
2022/05/29 02:53:51;;;;;;;3.22;1.95;;;12.90;94.10;;;;;;6038732;23;20193;-76
2022/05/29 02:56:18;;;;;;;2.38;1.77;;;12.80;94.00;;;;;;6046186;23;20299;-77
2022/05/29 02:58:48;;;;;;;3.60;2.33;;;12.70;94.20;;;;;;6049049;23;20188;-77
2022/05/29 03:01:28;;;;;;;3.83;2.50;;;12.70;94.60;;;;;;6048723;23;20193;-76
2022/05/29 03:04:14;;;;;;;3.30;1.85;;;12.60;94.60;;;;;;6057971;23;20212;-77
2022/05/29 03:06:47;;;;;;;2.78;2.03;;;12.50;94.70;;;;;;6043936;23;20235;-77
2022/05/29 03:09:28;;;;;;;2.10;1.90;;;12.40;94.90;;;;;;6040034;23;20270;-77
2022/05/29 03:11:56;;;;;;;3.13;2.10;;;12.40;95.20;;;;;;6046851;23;20619;-76
2022/05/29 03:14:34;;;;;;;2.35;2.15;;;12.30;95.50;;;;;;6041578;23;20216;-76
2022/05/29 03:17:14;;;;;;;4.85;2.15;;;12.30;95.70;;;;;;6050118;23;20294;-77
2022/05/29 03:19:51;;;;;;;2.28;2.00;;;12.20;95.80;;;;;;6044257;23;20289;-76
2022/05/29 03:22:28;;;;;;;4.78;2.33;;;12.20;96.00;;;;;;6041075;23;20212;-76
2022/05/29 03:25:03;;;;;;;3.50;2.05;;;12.10;96.20;;;;;;6057588;23;20235;-77
2022/05/29 03:27:36;;;;;;;2.95;2.35;;;12.10;96.40;;;;;;6055816;23;20212;-76
2022/05/29 03:30:08;;;;;;;2.78;2.30;;;12.20;96.70;;;;;;6054545;23;20196;-77
2022/05/29 03:32:38;;;;;;;3.40;2.70;;;12.10;97.10;;;;;;6049794;23;20500;-77
2022/05/29 03:35:21;;;;;;;2.55;1.80;;;12.20;97.30;;;;;;6047601;23;20187;-77
2022/05/29 03:37:49;;;;;;;2.78;2.00;;;12.20;97.70;;;;;;6054305;23;20215;-77
2022/05/29 03:40:17;;;;;;;2.65;2.20;;;12.20;98.30;;;;;;6053417;23;20203;-77
2022/05/29 03:42:44;;;;;;;2.60;2.40;;;12.10;98.90;;;;;;6043989;23;20296;-77
2022/05/29 03:45:12;;;;;;;2.50;2.30;;;12.10;99.90;;;;;;6047388;23;20197;-77
2022/05/29 03:47:41;;;;;;;3.13;2.40;;;12.00;99.90;;;;;;6053013;23;20224;-76
2022/05/29 03:50:13;;;;;;;3.95;2.58;;;12.00;99.90;;;;;;6044454;23;20189;-76
2022/05/29 03:52:40;;;;;;;3.63;2.30;;;11.90;99.90;;;;;;6057072;23;20572;-76
2022/05/29 03:55:08;;;;;;;3.28;2.20;;;12.00;99.90;;;;;;6042749;23;20277;-76
2022/05/29 03:57:35;;;;;;;3.25;2.25;;;11.90;99.90;;;;;;6044761;23;20728;-75
2022/05/29 04:00:03;;;;;;;2.50;2.30;;;12.00;99.90;;;;;;6058912;23;20466;-76
2022/05/29 04:02:30;;;;;;;4.47;2.30;;;12.00;99.90;;;;;;6039426;23;20210;-76
2022/05/29 04:04:58;;;;;;;2.55;2.30;;;12.00;99.90;;;;;;6048817;23;20271;-76
2022/05/29 04:12:03;;;;;;;4.20;2.10;;;12.10;99.90;;;;;;6050516;23;20866;-76
2022/05/29 04:12:58;;;;;;;2.83;2.00;;;12.10;99.90;;;;;;6052844;23;20295;-76
2022/05/29 04:15:27;;;;;;;2.53;1.77;;;12.20;99.90;;;;;;6041930;23;20193;-76
2022/05/29 04:17:54;;;;;;;2.50;1.95;;;12.20;99.90;;;;;;6049551;23;20197;-76
2022/05/29 04:20:23;;;;;;;2.25;1.85;;;12.10;99.90;;;;;;6047386;23;20205;-76
2022/05/29 04:22:50;;;;;;;4.57;2.17;;;12.10;99.90;;;;;;6048417;23;20214;-76
2022/05/29 04:25:17;;;;;;;2.70;1.80;;;12.10;99.90;;;;;;6055392;23;20217;-76
2022/05/29 04:27:44;;;;;;;2.92;2.00;;;12.00;99.90;;;;;;6053768;23;20283;-76
2022/05/29 04:30:12;;;;;;;2.42;1.90;;;12.00;99.90;;;;;;6054951;23;20194;-76
2022/05/29 04:33:00;;;;;;;3.63;1.95;;;12.00;99.90;;;;;;6040520;23;20253;-76
2022/05/29 04:35:29;;;;;;;2.90;1.80;;;12.00;99.90;;;;;;6047173;23;20208;-76
2022/05/29 04:37:56;;;;;;;2.10;1.80;;;12.00;99.90;;;;;;6045792;23;20197;-75
2022/05/29 04:40:23;;;;;;;2.40;1.70;;;12.10;99.90;;;;;;6049411;23;20492;-76
2022/05/29 04:42:50;;;;;;;3.00;2.10;;;12.10;99.90;;;;;;6050110;23;20586;-76
2022/05/29 04:45:17;;;;;;;2.67;2.00;;;12.00;99.90;;;;;;6055146;23;20192;-76
2022/05/29 04:47:44;;;;;;;3.50;2.10;;;12.00;99.90;;;;;;6046934;23;20217;-76
2022/05/29 04:50:12;;;;;;;3.03;1.80;;;12.00;99.90;;;;;;6040009;23;20200;-76
2022/05/29 04:52:41;;;;;;;2.60;2.10;;;11.90;99.90;;;;;;6052926;23;20286;-77
2022/05/29 04:55:09;;;;;;;2.47;1.58;;;11.90;99.90;;;;;;6050420;23;20282;-77
2022/05/29 04:57:36;;;;;;;3.20;1.95;;;11.90;99.90;;;;;;6053585;23;20185;-77
2022/05/29 05:00:03;;;;;;;2.30;1.90;;;12.00;99.90;;;;;;6042000;23;20556;-77
2022/05/29 05:02:30;;;;;;;4.05;2.30;;;12.10;99.90;;;;;;6049831;23;20212;-77
2022/05/29 05:04:57;;;;;;;3.63;2.30;;;12.20;99.90;;;;;;6059404;23;20605;-77
2022/05/29 05:07:24;;;;;;;2.63;2.05;;;12.30;99.90;;;;;;6050107;23;20258;-77
2022/05/29 05:09:52;;;;;;;2.08;1.88;;;12.20;99.90;;;;;;6046483;23;20193;-77
2022/05/29 05:12:19;;;;;;;4.78;2.60;;;12.30;99.90;;;;;;6045148;23;20244;-77
2022/05/29 05:14:46;;;;;;;2.75;1.95;;;12.50;99.90;;;;;;6052232;23;20656;-77
2022/05/29 05:17:13;;;;;;;3.00;2.20;;;12.50;99.90;;;;;;6047590;23;20303;-77
2022/05/29 05:19:40;;;;;;;4.15;2.15;;;12.70;99.90;;;;;;6046541;23;20195;-77
2022/05/29 05:22:08;;;;;;;2.85;1.75;;;12.70;99.90;;;;;;6056228;23;20262;-78
2022/05/29 05:24:37;;;;;;;2.35;1.88;;;12.70;99.90;;;;;;6043602;23;20252;-77
2022/05/29 05:27:07;;;;;;;4.80;1.73;;;12.90;99.90;;;;;;6050616;23;20652;-76
2022/05/29 05:29:35;;;;;;;2.85;1.73;;;13.00;99.90;;;;;;6042169;23;20260;-76
2022/05/29 05:32:02;;;;;;;3.85;1.55;;;12.90;99.90;;;;;;6040037;23;20204;-77
2022/05/29 05:34:29;;;;;;;2.10;1.63;;;13.10;99.90;;;;;;6054342;23;20839;-77
2022/05/29 05:36:56;;;;;;;1.75;1.63;;;13.10;99.90;;;;;;6041385;23;20195;-80
2022/05/29 05:39:24;;;;;;;2.72;1.83;;;13.30;99.90;;;;;;6044268;23;20185;-76
2022/05/29 05:41:51;;;;;;;2.97;1.48;;;13.40;99.90;;;;;;6048634;23;20207;-76
2022/05/29 05:44:20;;;;;;;1.83;1.60;;;13.60;99.90;;;;;;6054127;23;20205;-76
2022/05/29 05:46:49;;;;;;;2.67;1.50;;;13.80;99.90;;;;;;6055761;23;20208;-77
2022/05/29 05:49:18;;;;;;;4.95;2.17;;;14.00;99.90;;;;;;6044458;23;20196;-84
2022/05/29 05:51:45;;;;;;;2.72;1.30;;;14.00;99.90;;;;;;6042556;23;20212;-78
2022/05/29 05:54:13;;;;;;;2.80;2.10;;;13.90;99.90;;;;;;6052345;23;21235;-77
2022/05/29 05:56:42;;;;;;;3.75;1.85;;;13.70;99.90;;;;;;6048527;23;20260;-77
2022/05/29 05:59:09;;;;;;;1.70;1.60;;;13.50;99.90;;;;;;6047081;23;20185;-76
2022/05/29 06:01:38;;;;;;;2.50;1.88;;;13.30;99.90;;;;;;6048281;23;20895;-77
2022/05/29 06:04:06;;;;;;;3.78;2.03;;;13.40;99.90;;;;;;6053749;23;20275;-78
2022/05/29 06:06:33;;;;;;;2.78;2.00;;;13.40;99.90;;;;;;6049309;23;20236;-77
2022/05/29 06:09:01;;;;;;;3.33;2.25;;;13.40;99.90;;;;;;6052911;23;20230;-77
2022/05/29 06:11:29;;;;;;;4.15;2.47;;;13.50;99.90;;;;;;6050059;23;20218;-77
2022/05/29 06:13:57;;;;;;;2.47;1.48;;;13.50;99.90;;;;;;6055400;23;20191;-77
2022/05/29 06:16:24;;;;;;;3.97;1.98;;;13.70;99.90;;;;;;6055084;23;20295;-77
2022/05/29 06:18:52;;;;;;;2.83;1.90;;;13.80;99.90;;;;;;6045171;23;20184;-78
2022/05/29 06:21:19;;;;;;;2.80;1.70;;;13.90;99.90;;;;;;6045336;23;20470;-77
2022/05/29 06:23:46;;;;;;;2.30;1.60;;;14.00;99.90;;;;;;6044398;23;20219;-77
2022/05/29 06:26:13;;;;;;;6.40;3.20;;;14.10;99.90;;;;;;6040472;23;20427;-77
2022/05/29 06:28:41;;;;;;;1.90;1.63;;;14.20;99.90;;;;;;6049369;23;20454;-77
2022/05/29 06:31:10;;;;;;;2.38;2.00;;;14.50;99.90;;;;;;6048402;23;20466;-77
2022/05/29 06:33:37;;;;;;;4.43;2.30;;;14.50;99.90;;;;;;6054993;23;20267;-78
2022/05/29 06:36:10;;;;;;;4.57;2.30;;;14.80;99.90;;;;;;6048611;23;20448;-77
2022/05/29 06:38:37;;;;;;;2.43;1.40;;;15.00;99.90;;;;;;6054978;23;20436;-76
2022/05/29 06:41:06;;;;;;;2.83;1.67;;;15.30;99.50;;;;;;6052546;23;20509;-78
2022/05/29 06:43:33;;;;;;;3.73;1.70;;;15.40;98.90;;;;;;6040513;23;20519;-77
2022/05/29 06:46:01;;;;;;;4.13;2.03;;;15.60;99.00;;;;;;6041974;23;20841;-77
2022/05/29 06:48:29;;;;;;;2.80;1.83;;;15.70;98.60;;;;;;6050612;23;20559;-74
2022/05/29 06:50:56;;;;;;;3.73;2.10;;;15.80;98.40;;;;;;6050334;23;21011;-76
2022/05/29 06:53:25;;;;;;;3.60;1.83;;;16.00;98.30;;;;;;6050888;23;20516;-76
2022/05/29 06:55:53;;;;;;;4.30;2.23;;;15.90;97.90;;;;;;6051687;23;20486;-76
2022/05/29 06:58:20;;;;;;;3.93;2.27;;;16.10;97.70;;;;;;6046165;23;20535;-70
2022/05/29 07:09:04;;;;;;;2.57;1.57;;;16.50;96.70;;;;;;6045715;23;20954;-77
2022/05/29 07:11:35;;;;;;;5.47;1.80;;;16.40;96.50;;;;;;6047337;23;20455;-77
2022/05/29 07:14:04;;;;;;;6.50;1.93;;;16.30;96.50;;;;;;6039949;23;20826;-76
2022/05/29 07:16:31;;;;;;;3.50;1.80;;;16.30;96.50;;;;;;6039768;23;20505;-75
2022/05/29 07:18:58;;;;;;;4.03;1.60;;;16.20;96.00;;;;;;6049835;23;20478;-76
2022/05/29 07:21:26;;;;;;;3.00;1.90;;;16.10;95.70;;;;;;6052662;23;20616;-76
2022/05/29 07:23:53;;;;;;;3.73;1.80;;;16.10;95.70;;;;;;6061334;23;20436;-77
2022/05/29 07:26:22;;;;;;;3.73;1.97;;;16.00;96.40;;;;;;6043091;23;20458;-77
2022/05/29 07:28:48;;;;;;;4.20;2.00;;;15.70;97.20;;;;;;6041858;23;20894;-77
2022/05/29 07:31:15;;;;;;;5.13;2.40;;;15.80;97.60;;;;;;6049359;23;20459;-77
2022/05/29 07:33:42;;;;;;;3.53;1.77;;;15.80;97.60;;;;;;6046016;23;20446;-76
2022/05/29 07:36:10;;;;;;;2.60;1.60;;;15.60;97.70;;;;;;6050452;23;21028;-86
2022/05/29 07:38:37;;;;;;;3.93;2.20;;;15.90;97.50;;;;;;6051443;23;20439;-75
2022/05/29 07:43:18;;;;;;;2.00;1.80;;;15.80;97.50;;;;;;6043618;23;20463;-76
2022/05/29 07:43:53;;;;;;;2.77;1.90;;;15.70;97.80;;;;;;6045306;23;20486;-77
2022/05/29 07:46:20;;;;;;;4.90;2.27;;;15.90;98.10;;;;;;6043109;23;20451;-77
2022/05/29 07:48:47;;;;;;;2.67;1.57;;;15.80;97.60;;;;;;6049469;23;20486;-77
2022/05/29 07:51:15;;;;;;;4.37;2.10;;;15.90;97.70;;;;;;6042266;23;20499;-76
2022/05/29 07:53:42;;;;;;;3.77;1.87;;;16.20;97.80;;;;;;6045135;23;20431;-77
2022/05/29 07:56:09;;;;;;;3.30;2.00;;;16.40;97.60;;;;;;6046472;23;20783;-77
2022/05/29 07:58:38;;;;;;;2.53;2.00;;;16.40;97.10;;;;;;6047436;23;20805;-76
2022/05/29 08:01:07;;;;;;;2.93;1.87;;;16.30;96.80;;;;;;6043718;23;20463;-76
2022/05/29 08:03:34;;;;;;;3.00;2.10;;;16.20;96.80;;;;;;6041290;23;20523;-77
2022/05/29 08:06:01;;;;;;;4.07;1.90;;;16.30;97.00;;;;;;6057285;23;20432;-77
2022/05/29 08:08:29;;;;;;;3.37;2.00;;;17.10;96.00;;;;;;6045903;23;20834;-77
2022/05/29 08:10:56;;;;;;;2.80;1.60;;;17.90;94.70;;;;;;6045507;23;20533;-76
2022/05/29 08:13:24;;;;;;;3.80;1.90;;;18.50;93.90;;;;;;6037231;23;20436;-77
2022/05/29 08:15:51;;;;;;;4.23;1.97;;;18.80;93.00;;;;;;6050630;23;20442;-77
2022/05/29 08:18:19;;;;;;;3.10;1.87;;;19.00;92.90;;;;;;6044126;23;20699;-77
2022/05/29 08:20:46;;;;;;;4.30;1.90;;;19.30;91.00;;;;;;6049481;23;20566;-77
2022/05/29 08:23:13;;;;;;;3.63;2.10;;;19.70;90.60;;;;;;6037561;23;20444;-77
2022/05/29 08:31:14;;;;;;;4.00;1.70;;;20.60;87.00;;;;;;6042505;23;20472;-77
2022/05/29 08:33:46;;;;;;;3.83;2.10;;;20.60;86.30;;;;;;6055544;23;20482;-77
2022/05/29 08:36:16;;;;;;;3.73;1.73;;;20.50;84.50;;;;;;6040956;23;20457;-77
2022/05/29 08:38:45;;;;;;;6.10;2.13;;;20.30;85.40;;;;;;6054600;23;20929;-91
2022/05/29 08:41:15;;;;;;;5.97;2.17;;;19.80;85.70;;;;;;6015031;23;21100;-78
2022/05/29 08:43:51;;;;;;;2.90;1.73;;;19.40;86.50;;;;;;6049241;23;20529;-78
2022/05/29 08:46:21;;;;;;;2.73;2.27;;;19.10;86.80;;;;;;6038554;23;20442;-76
2022/05/29 08:48:53;;;;;;;5.40;2.33;;;18.70;87.20;;;;;;6043585;23;20962;-78
2022/05/29 08:51:36;;;;;;;3.00;1.80;;;18.40;88.90;;;;;;6055273;23;21290;-77
2022/05/29 08:54:10;;;;;;;2.93;1.80;;;18.10;88.50;;;;;;6040080;23;20508;-75
2022/05/29 08:56:46;;;;;;;4.20;2.20;;;18.00;89.10;;;;;;6049561;23;20869;-83
2022/05/29 08:59:20;;;;;;;5.07;1.93;;;18.00;89.70;;;;;;6045477;23;20953;-77
2022/05/29 09:01:57;;;;;;;3.57;1.90;;;17.90;90.00;;;;;;6049901;23;20465;-77
2022/05/29 09:04:31;;;;;;;3.93;1.90;;;18.00;90.00;;;;;;6037660;23;20432;-76
2022/05/29 09:07:01;;;;;;;5.23;2.00;;;17.70;89.80;;;;;;6049556;23;20505;-77
2022/05/29 09:09:35;;;;;;;3.10;2.10;;;17.40;90.00;;;;;;6051526;23;20561;-76
2022/05/29 09:12:05;;;;;;;5.77;2.17;;;16.90;90.60;;;;;;6050547;23;20479;-76
2022/05/29 09:14:41;;;;;;;5.33;1.77;;;16.50;91.60;;;;;;6056817;23;20439;-76
2022/05/29 09:17:13;;;;;;;2.90;1.80;;;16.20;93.50;;;;;;6043440;23;21013;-76
2022/05/29 09:19:48;;;;;;;5.73;2.20;;;16.00;94.50;;;;;;6044484;23;20469;-76
2022/05/29 09:22:20;;;;;;;4.43;2.00;;;16.10;95.20;;;;;;6041165;23;20535;-77
2022/05/29 09:24:58;;;;;;;3.57;2.03;;;16.10;94.90;;;;;;6041677;23;20963;-77
2022/05/29 09:27:26;;;;;;;3.00;1.80;;;16.10;94.20;;;;;;6047110;23;20519;-77
2022/05/29 09:29:54;;;;;;;4.07;2.00;;;15.90;93.10;;;;;;6047426;23;20492;-77
2022/05/29 09:32:22;;;;;;;3.50;1.80;;;15.80;93.30;;;;;;6049895;23;20546;-77
2022/05/29 09:35:00;;;;;;;3.10;1.93;;;15.70;93.90;;;;;;6044118;23;20436;-77
2022/05/29 09:37:42;;;;;;;2.90;1.60;;;15.80;94.00;;;;;;6051485;23;20428;-77
2022/05/29 09:40:16;;;;;;;3.23;1.90;;;15.90;93.70;;;;;;6055553;23;20424;-77
2022/05/29 09:42:44;;;;;;;3.00;1.83;;;16.00;94.00;;;;;;6050625;23;20839;-77
2022/05/29 09:45:15;;;;;;;4.30;1.80;;;16.00;93.70;;;;;;6050677;23;20443;-77
2022/05/29 09:50:44;;;;;;;3.07;1.80;;;16.50;93.00;;;;;;6041416;23;20463;-77
2022/05/29 09:53:18;;;;;;;2.77;1.70;;;16.40;92.70;;;;;;6044794;23;20460;-76
2022/05/29 09:55:56;;;;;;;3.23;1.80;;;16.40;93.00;;;;;;6044614;23;20447;-77
2022/05/29 09:58:28;;;;;;;1.80;1.37;;;16.80;93.50;;;;;;6042399;23;20455;-77
2022/05/29 10:01:01;;;;;;;1.97;1.30;;;16.70;93.40;;;;;;6039659;23;20543;-77
2022/05/29 10:03:43;;;;;;;3.73;1.70;;;17.20;92.90;;;;;;6058624;23;20447;-76
2022/05/29 10:06:29;;;;;;;4.53;1.77;;;17.50;93.10;;;;;;6056629;23;20890;-77
2022/05/29 10:09:08;;;;;;;2.50;1.40;;;17.90;93.00;;;;;;6054585;23;20476;-77
2022/05/29 10:11:35;;;;;;;2.03;1.50;;;18.20;92.70;;;;;;6047212;23;20814;-77
2022/05/29 10:14:21;;;;;;;1.83;1.57;;;18.20;91.20;;;;;;6051568;23;20469;-77
2022/05/29 10:16:49;;;;;;;2.53;1.63;;;18.30;91.60;;;;;;6046742;23;20485;-77
2022/05/29 10:19:33;;;;;;;2.20;1.70;;;18.40;90.90;;;;;;6050900;23;20542;-77
2022/05/29 10:22:03;;;;;;;4.17;2.10;;;18.60;91.10;;;;;;6049305;23;20859;-77
2022/05/29 10:24:37;;;;;;;2.77;1.70;;;18.70;89.20;;;;;;6055804;23;20467;-77
2022/05/29 10:27:06;;;;;;;4.00;1.90;;;18.80;89.50;;;;;;6046164;23;20942;-77
2022/05/29 10:29:36;;;;;;;2.60;1.63;;;19.10;89.70;;;;;;6054376;23;20546;-77
2022/05/29 10:32:07;;;;;;;1.87;1.60;;;19.50;88.50;;;;;;6048282;23;20459;-77
2022/05/29 10:34:38;;;;;;;2.73;1.50;;;20.10;87.20;;;;;;6058515;23;20428;-77
2022/05/29 10:37:28;;;;;;;3.13;1.80;;;20.60;86.10;;;;;;6042767;23;20519;-77
2022/05/29 10:40:12;;;;;;;2.40;1.57;;;20.40;83.90;;;;;;6044154;23;20441;-77
2022/05/29 10:42:42;;;;;;;4.00;1.70;;;19.70;84.80;;;;;;6050183;23;20445;-77
2022/05/29 10:45:18;;;;;;;3.73;2.00;;;19.10;86.10;;;;;;6045544;23;20542;-77
2022/05/29 10:47:56;;;;;;;2.73;1.67;;;18.70;87.60;;;;;;6049038;23;20449;-77
2022/05/29 10:50:30;;;;;;;2.80;1.60;;;18.20;87.50;;;;;;6047019;23;20502;-77
2022/05/29 10:53:10;;;;;;;2.10;1.70;;;17.60;88.10;;;;;;6049409;23;20509;-76
2022/05/29 10:55:46;;;;;;;2.60;1.47;;;17.30;88.20;;;;;;6041096;23;20933;-77
2022/05/29 10:58:35;;;;;;;4.57;1.60;;;16.80;88.70;;;;;;6046818;23;20967;-77
2022/05/29 11:04:22;;;;;;;2.97;1.70;;;16.80;89.70;;;;;;6056414;23;20493;-77
2022/05/29 11:07:05;;;;;;;5.53;2.13;;;16.80;89.60;;;;;;6039290;23;20877;-77
2022/05/29 11:09:58;;;;;;;4.10;2.20;;;16.60;92.30;;;;;;6045408;23;20468;-77
2022/05/29 11:12:37;;;;;;;3.10;1.80;;;16.00;93.20;;;;;;6041589;23;20450;-76
2022/05/29 11:15:17;;;;;;;4.13;2.17;;;15.70;94.00;;;;;;6050688;23;20448;-77
2022/05/29 11:17:53;;;;;;;3.60;1.53;;;15.50;94.80;;;;;;6044475;23;20458;-77
2022/05/29 11:20:32;;;;;;;3.27;1.90;;;15.30;95.10;;;;;;6049320;23;20504;-77
2022/05/29 11:23:17;;;;;;;1.77;1.43;;;15.10;95.20;;;;;;6049403;23;20512;-77
2022/05/29 11:25:55;;;;;;;2.90;1.70;;;15.00;94.50;;;;;;6045777;23;20490;-77
2022/05/29 11:28:33;;;;;;;2.13;1.40;;;14.90;94.50;;;;;;6048051;23;20925;-77
2022/05/29 11:31:13;;;;;;;2.67;1.50;;;14.90;93.70;;;;;;6050028;23;20466;-77
2022/05/29 11:33:56;;;;;;;2.37;1.60;;;14.80;92.50;;;;;;6046692;23;20478;-77
2022/05/29 11:36:36;;;;;;;2.70;1.40;;;14.80;92.50;;;;;;6048173;23;20448;-77
2022/05/29 11:39:24;;;;;;;2.97;1.40;;;14.70;92.50;;;;;;6035935;23;20478;-77
2022/05/29 11:41:58;;;;;;;2.05;1.60;;;14.60;93.20;;;;;;6053853;23;20545;-77
2022/05/29 11:44:30;;;;;;;4.20;1.40;;;14.50;93.10;;;;;;6048088;23;20644;-77
2022/05/29 11:52:48;;;;;;;3.72;1.48;;;14.50;93.30;;;;;;6054475;23;20250;-76
2022/05/29 11:55:18;;;;;;;2.90;1.93;;;14.50;94.40;;;;;;6047491;23;20219;-76
2022/05/29 11:57:51;;;;;;;3.05;1.70;;;14.60;96.70;;;;;;6044301;23;20547;-76
2022/05/29 12:00:34;;;;;;;3.67;1.93;;;14.80;97.10;;;;;;6049690;23;20224;-75
2022/05/29 12:03:18;;;;;;;2.63;1.60;;;15.20;98.50;;;;;;6047893;23;20825;-76
2022/05/29 12:05:50;;;;;;;2.00;1.30;;;15.50;97.40;;;;;;6050255;23;20530;-76
2022/05/29 12:08:22;;;;;;;3.07;1.70;;;16.00;96.70;;;;;;6056352;23;20474;-76
2022/05/29 12:11:02;;;;;;;2.47;1.40;;;16.50;96.10;;;;;;6042917;23;20456;-76
2022/05/29 12:13:34;;;;;;;2.90;1.77;;;17.10;93.90;;;;;;6052470;23;20464;-75
2022/05/29 12:16:13;;;;;;;4.13;1.53;;;17.70;93.80;;;;;;6055261;23;20469;-76
2022/05/29 12:18:46;;;;;;;1.93;1.67;;;18.30;94.90;;;;;;6050078;23;20534;-76
2022/05/29 12:21:16;;;;;;;2.00;1.80;;;19.10;94.10;;;;;;6041266;23;20483;-76
2022/05/29 12:23:47;;;;;;;1.73;1.23;;;19.70;89.40;;;;;;6053521;23;20521;-76
2022/05/29 12:26:19;;;;;;;2.70;1.77;;;20.40;88.40;;;;;;6040677;23;20446;-76
2022/05/29 12:28:52;;;;;;;1.77;1.30;;;20.90;87.50;;;;;;6051233;23;20495;-76
2022/05/29 12:31:23;;;;;;;2.37;1.37;;;21.50;87.70;;;;;;6048639;23;20763;-76
2022/05/29 12:33:50;;;;;;;2.10;1.20;;;21.30;77.70;;;;;;6060366;23;20433;-76
2022/05/29 12:36:32;;;;;;;1.97;1.30;;;20.20;80.40;;;;;;6039621;23;20619;-76
2022/05/29 12:39:06;;;;;;;2.10;1.20;;;19.80;76.50;;;;;;6052849;23;20447;-77
2022/05/29 12:42:03;;;;;;;2.10;1.10;;;19.60;80.30;;;;;;6040193;23;20459;-76
2022/05/29 12:44:44;;;;;;;2.60;1.70;;;19.60;77.40;;;;;;6027688;23;20519;-77
2022/05/29 12:47:43;;;;;;;3.33;2.00;;;20.30;87.00;;;;;;6053734;23;21920;-77
2022/05/29 12:50:33;;;;;;;1.77;1.47;;;20.50;90.10;;;;;;6040998;23;20894;-77
2022/05/29 12:53:30;;;;;;;4.00;1.53;;;21.00;90.10;;;;;;6038137;23;20460;-77
2022/05/29 12:56:14;;;;;;;1.67;1.30;;;21.10;85.60;;;;;;6047765;23;20518;-77
2022/05/29 12:59:06;;;;;;;3.20;1.50;;;19.90;87.00;;;;;;6046509;23;20465;-77
2022/05/29 13:02:04;;;;;;;2.20;1.57;;;19.00;90.50;;;;;;6060539;23;20502;-76
2022/05/29 13:04:58;;;;;;;2.07;1.43;;;18.20;90.40;;;;;;6040712;23;20893;-77
2022/05/29 13:07:30;;;;;;;1.80;1.30;;;17.60;91.40;;;;;;6054689;23;20432;-77
2022/05/29 13:10:12;;;;;;;2.03;1.50;;;17.00;92.20;;;;;;6042759;23;20468;-77
2022/05/29 13:12:44;;;;;;;2.47;1.40;;;16.50;93.20;;;;;;6049908;23;20431;-77
2022/05/29 13:15:21;;;;;;;3.47;1.90;;;16.30;93.50;;;;;;6053476;23;20523;-77
2022/05/29 13:18:01;;;;;;;3.87;1.50;;;16.00;93.40;;;;;;6036021;23;20436;-76
2022/05/29 13:20:28;;;;;;;3.57;1.40;;;16.40;93.50;;;;;;6047279;23;20475;-77
2022/05/29 13:23:06;;;;;;;1.93;1.37;;;18.30;91.70;;;;;;6059196;23;20528;-77
2022/05/29 13:26:07;;;;;;;2.90;1.87;;;20.60;88.80;;;;;;6052440;23;20470;-77
2022/05/29 13:28:52;;;;;;;1.50;1.27;;;23.30;83.50;;;;;;6044415;23;20440;-77
2022/05/29 13:31:20;;;;;;;2.00;1.60;;;26.10;75.70;;;;;;6044904;23;20463;-77
2022/05/29 13:33:56;;;;;;;2.20;1.40;;;26.20;67.30;;;;;;6048181;23;21307;-77
2022/05/29 13:37:07;;;;;;;1.77;1.27;;;24.00;69.60;;;;;;6044727;23;20907;-77
2022/05/29 13:39:52;;;;;;;2.40;1.33;;;24.10;68.50;;;;;;6046675;23;20542;-77
2022/05/29 13:42:29;;;;;;;1.60;1.30;;;26.20;66.60;;;;;;6043768;23;20798;-77
2022/05/29 13:44:57;;;;;;;2.13;1.47;;;26.50;61.40;;;;;;6051940;23;20498;-77